Altus, OK

4:35 AM CST on December 05, 2016 (GMT -0600)
Airplane Park | | Change Station

Elev 1391 ft 34.64 °N, 99.32 °W | Updated 15 seconds ago

Light Freezing Fog
Freezing Fog
35.8 °F
Feels Like 36 °F
N
0.0
Wind Variable Wind from SSE
Gusts 0.0 mph

Today
High -- | Low -- °F
--% Chance of Precip.
Yesterday
High -- | Low -- °F
Precip. -- in
Pressure 29.95 in
Visibility 0.2 miles
Clouds Clear
Windchill 36 °F
Dew Point 35 °F
Humidity 98%
Rainfall 0.00 in
Snow Depth Not available.
7:29 AM 5:26 PM
Waxing Crescent, 30% visible
SPECI KLTS 051028Z 19001KT 1/4SM R35R/0800FT FZFG CLR 00/M01 A2995 RMK AO2A
Pressure 29.95 in
Visibility 0.2 miles
Clouds Clear
Windchill 36 °F
Dew Point 35 °F
Humidity 98%
Rainfall 0.00 in
Snow Depth Not available.
7:29 AM 5:26 PM
Waxing Crescent, 30% visible
SPECI KLTS 051028Z 19001KT 1/4SM R35R/0800FT FZFG CLR 00/M01 A2995 RMK AO2A

10-Day Weather Forecast

Almanac

Astronomy

Dec. 05, 2016 Rise Set
Actual Time
Civil Twilight
Nautical Twilight
Astronomical Twilight
Moon
Length of Visible Light
Length of Day
Tomorrow will be .
, % of the Moon is Illuminated

Today's Extremes

State Highs State Lows

Community

WunderPhotos

Upload Photos

1,955,777 photos uploaded!

WunderBlog® & News

Nearby

Air Quality

  Air Quality AQ Index Pollutant
Not available.

Snow Depth

Station Depth Elevation

Earthquake Activity

City Distance Mag. Time & Date
Minimum magnitude displayed is 2.5.

Coastal Water Temperatures

Place Temperature

Stations

Nearby Weather Stations

Station Location Temp. Windchill Dew Point Humidity Wind Precip. Elev Updated Type
                   

Watches & Warnings

There are currently no watches in effect.